Time;durP1;ratioP1;P1;durP2;ratioP2;P2;SDS_P1;SDS_P2;PMS_P1;PMS_P2;Temp;Humidity;BMP_temperature;BMP_pressure;BME280_temperature;BME280_humidity;BME280_pressure;Samples;Min_cycle;Max_cycle;Signal;HPM_P1;HPM_P2
2023/12/29 00:01:30;;;;;;;2.50;2.00;;;9.40;99.90;;;;;;4969234;28;20385;-69
2023/12/29 00:03:55;;;;;;;3.35;2.10;;;9.40;99.90;;;;;;4958853;28;20027;-71
2023/12/29 00:06:21;;;;;;;3.63;2.38;;;9.50;99.90;;;;;;4964386;28;20472;-68
2023/12/29 00:08:47;;;;;;;4.10;2.08;;;9.60;99.90;;;;;;4970633;28;20208;-68
2023/12/29 00:11:22;;;;;;;1.90;1.70;;;9.70;99.90;;;;;;4961650;28;20103;-69
2023/12/29 00:13:48;;;;;;;1.65;1.50;;;9.70;99.90;;;;;;4960049;28;20019;-68
2023/12/29 00:16:15;;;;;;;2.97;2.28;;;9.70;99.90;;;;;;4966064;28;20047;-70
2023/12/29 00:18:40;;;;;;;4.85;2.10;;;9.70;99.90;;;;;;4970781;28;20536;-69
2023/12/29 00:21:07;;;;;;;3.65;1.90;;;9.70;99.90;;;;;;4963022;28;20098;-69
2023/12/29 00:23:32;;;;;;;2.90;1.95;;;9.70;99.90;;;;;;4964103;28;20035;-68
2023/12/29 00:25:58;;;;;;;2.33;1.77;;;9.70;99.90;;;;;;4970102;28;20406;-69
2023/12/29 00:28:23;;;;;;;2.13;1.70;;;9.70;99.90;;;;;;4964877;28;20031;-69
2023/12/29 00:30:49;;;;;;;2.38;1.77;;;9.60;99.90;;;;;;4970662;28;20026;-69
2023/12/29 00:33:15;;;;;;;4.03;2.00;;;9.60;99.90;;;;;;4958472;28;20040;-70
2023/12/29 00:35:41;;;;;;;5.03;2.25;;;9.60;99.90;;;;;;4967174;28;20046;-69
2023/12/29 00:38:06;;;;;;;4.57;2.20;;;9.60;99.90;;;;;;4958061;28;20061;-70
2023/12/29 00:40:33;;;;;;;2.55;2.05;;;9.60;99.90;;;;;;4963508;28;20034;-69
2023/12/29 00:43:00;;;;;;;3.15;2.17;;;9.60;99.90;;;;;;4970029;28;20314;-70
2023/12/29 00:45:29;;;;;;;2.45;2.25;;;9.50;99.90;;;;;;4969987;28;20063;-68
2023/12/29 00:47:55;;;;;;;4.82;2.10;;;9.60;99.90;;;;;;4958949;28;20026;-69
2023/12/29 00:50:20;;;;;;;3.03;2.15;;;9.60;99.90;;;;;;4965363;28;20027;-70
2023/12/29 00:52:46;;;;;;;3.00;1.83;;;9.60;99.90;;;;;;4971241;28;20102;-71
2023/12/29 00:55:11;;;;;;;3.65;2.22;;;9.50;99.90;;;;;;4962307;28;20382;-69
2023/12/29 00:57:37;;;;;;;3.67;2.28;;;9.60;99.90;;;;;;4961429;28;20043;-69
2023/12/29 01:00:03;;;;;;;2.10;1.80;;;9.60;99.90;;;;;;4968639;28;20019;-70
2023/12/29 01:02:28;;;;;;;2.88;2.10;;;9.60;99.90;;;;;;4963527;28;20090;-69
2023/12/29 01:04:54;;;;;;;3.17;2.20;;;9.60;99.90;;;;;;4961227;28;20031;-69
2023/12/29 01:07:20;;;;;;;3.53;2.17;;;9.60;99.90;;;;;;4957325;28;20114;-70
2023/12/29 01:09:45;;;;;;;3.58;1.95;;;9.60;99.90;;;;;;4952817;28;20074;-70
2023/12/29 01:12:11;;;;;;;3.95;2.20;;;9.60;99.90;;;;;;4956429;28;20027;-69
2023/12/29 01:14:37;;;;;;;3.20;2.40;;;9.60;99.90;;;;;;4962507;28;20034;-70
2023/12/29 01:17:02;;;;;;;2.78;2.20;;;9.60;99.90;;;;;;4960867;28;20142;-70
2023/12/29 01:19:28;;;;;;;2.30;1.95;;;9.50;99.90;;;;;;4970740;28;20035;-70
2023/12/29 01:21:54;;;;;;;2.25;2.05;;;9.50;99.90;;;;;;4965971;28;20130;-70
2023/12/29 01:24:19;;;;;;;3.40;1.95;;;9.40;99.90;;;;;;4964614;28;20350;-70
2023/12/29 01:26:45;;;;;;;3.00;2.08;;;9.40;99.90;;;;;;4969394;28;20483;-70
2023/12/29 01:29:10;;;;;;;4.13;2.10;;;9.40;99.90;;;;;;4961488;28;20035;-72
2023/12/29 01:31:36;;;;;;;4.35;2.33;;;9.40;99.90;;;;;;4962018;28;20023;-71
2023/12/29 01:34:02;;;;;;;3.58;2.30;;;9.40;99.90;;;;;;4965665;28;20058;-70
2023/12/29 01:36:27;;;;;;;2.90;2.05;;;9.40;99.90;;;;;;4963390;28;20047;-70
2023/12/29 01:38:53;;;;;;;2.60;2.08;;;9.50;99.90;;;;;;4958957;28;20038;-71
2023/12/29 01:41:22;;;;;;;4.13;2.70;;;9.50;99.90;;;;;;4956760;28;20433;-71
2023/12/29 01:43:56;;;;;;;3.10;2.10;;;9.50;99.90;;;;;;4968304;28;20034;-70
2023/12/29 01:46:24;;;;;;;3.08;2.53;;;9.50;99.90;;;;;;4964504;28;20027;-71
2023/12/29 01:48:49;;;;;;;3.72;2.35;;;9.60;99.90;;;;;;4962053;28;20027;-70
2023/12/29 01:51:17;;;;;;;3.55;2.30;;;9.70;99.90;;;;;;4961501;28;20034;-70
2023/12/29 01:53:43;;;;;;;3.40;2.28;;;9.70;99.90;;;;;;4960485;28;20098;-70
2023/12/29 01:56:09;;;;;;;3.55;2.47;;;9.80;99.90;;;;;;4965086;28;20030;-71
2023/12/29 01:58:35;;;;;;;6.75;2.42;;;9.90;99.90;;;;;;4959571;28;20036;-70
2023/12/29 02:01:02;;;;;;;5.57;3.10;;;9.90;99.90;;;;;;4960591;28;20027;-70
2023/12/29 02:03:28;;;;;;;3.33;2.50;;;9.90;99.90;;;;;;4960693;28;20027;-71
2023/12/29 02:05:55;;;;;;;3.08;2.60;;;10.00;99.90;;;;;;4963003;28;20031;-70
2023/12/29 02:08:23;;;;;;;6.00;2.53;;;10.00;99.90;;;;;;4960932;28;20204;-71
2023/12/29 02:10:49;;;;;;;3.22;2.55;;;10.00;99.90;;;;;;4959158;28;20019;-70
2023/12/29 02:13:15;;;;;;;3.35;2.45;;;10.00;99.90;;;;;;4962517;28;20031;-71
2023/12/29 02:15:41;;;;;;;5.13;3.15;;;10.00;99.90;;;;;;4960019;28;20119;-71
2023/12/29 02:18:14;;;;;;;3.90;2.30;;;10.00;99.90;;;;;;4966957;28;20361;-70
2023/12/29 02:20:41;;;;;;;3.75;3.10;;;10.00;99.90;;;;;;4971319;28;20091;-71
2023/12/29 02:23:06;;;;;;;5.35;2.30;;;10.00;99.90;;;;;;4971262;28;20034;-70
2023/12/29 02:25:33;;;;;;;4.20;2.45;;;10.00;99.90;;;;;;4969474;28;20034;-70
2023/12/29 02:28:09;;;;;;;3.70;2.63;;;10.10;99.90;;;;;;4969005;28;20027;-71
2023/12/29 02:30:41;;;;;;;3.40;2.30;;;10.00;99.90;;;;;;4963111;28;20031;-70
2023/12/29 02:33:12;;;;;;;5.50;2.50;;;10.00;99.90;;;;;;4962385;28;20055;-70
2023/12/29 02:35:42;;;;;;;4.20;2.58;;;10.00;99.90;;;;;;4959373;28;20543;-70
2023/12/29 02:38:08;;;;;;;3.47;2.65;;;10.10;99.90;;;;;;4965466;28;20105;-70
2023/12/29 02:40:34;;;;;;;6.38;3.08;;;10.10;99.90;;;;;;4967394;28;20114;-69
2023/12/29 02:42:59;;;;;;;3.95;2.53;;;10.10;99.90;;;;;;4963329;28;20054;-69
2023/12/29 02:45:25;;;;;;;5.25;2.88;;;10.10;99.90;;;;;;4965613;28;20352;-71
2023/12/29 02:47:51;;;;;;;3.25;2.38;;;10.20;99.90;;;;;;4964406;28;20082;-69
2023/12/29 02:50:17;;;;;;;6.20;2.90;;;10.10;99.90;;;;;;4962339;28;20109;-70
2023/12/29 02:52:42;;;;;;;4.05;2.42;;;10.10;99.90;;;;;;4973658;28;20042;-69
2023/12/29 02:55:08;;;;;;;4.03;2.67;;;10.10;99.90;;;;;;4964626;28;20042;-70
2023/12/29 02:57:33;;;;;;;4.72;3.08;;;10.10;99.90;;;;;;4964437;28;20031;-69
2023/12/29 02:59:59;;;;;;;7.22;2.88;;;10.00;99.90;;;;;;4970332;28;20527;-70
2023/12/29 03:02:25;;;;;;;2.83;2.25;;;10.00;99.90;;;;;;4966460;28;20200;-70
2023/12/29 03:04:50;;;;;;;4.22;2.72;;;9.90;99.90;;;;;;4963239;28;20388;-70
2023/12/29 03:07:16;;;;;;;3.55;2.70;;;9.90;99.90;;;;;;4966845;28;20128;-70
2023/12/29 03:09:42;;;;;;;3.67;2.47;;;9.90;99.90;;;;;;4969033;28;20027;-70
2023/12/29 03:12:07;;;;;;;4.63;2.72;;;9.80;99.90;;;;;;4958851;28;20090;-71
2023/12/29 03:14:33;;;;;;;3.40;2.42;;;9.80;99.90;;;;;;4957665;28;20035;-68
2023/12/29 03:16:59;;;;;;;5.18;2.75;;;9.80;99.90;;;;;;4970493;28;20055;-69
2023/12/29 03:19:25;;;;;;;4.25;3.28;;;9.70;99.90;;;;;;4974192;28;20494;-69
2023/12/29 03:21:50;;;;;;;5.40;3.00;;;9.60;99.90;;;;;;4965822;28;20031;-70
2023/12/29 03:24:16;;;;;;;4.13;3.03;;;9.50;99.90;;;;;;4958622;28;20089;-70
2023/12/29 03:26:42;;;;;;;3.78;2.45;;;9.50;99.90;;;;;;4971745;28;20038;-70
2023/12/29 03:29:08;;;;;;;4.60;2.88;;;9.40;99.90;;;;;;4962802;28;20419;-70
2023/12/29 03:31:33;;;;;;;6.80;2.97;;;9.50;99.90;;;;;;4970734;28;20449;-69
2023/12/29 03:33:59;;;;;;;4.57;3.17;;;9.40;99.90;;;;;;4967910;28;20023;-70
2023/12/29 03:36:25;;;;;;;3.92;2.25;;;9.40;99.90;;;;;;4966042;28;20031;-70
2023/12/29 03:38:50;;;;;;;5.30;2.90;;;9.40;99.90;;;;;;4959315;28;20110;-70
2023/12/29 03:41:16;;;;;;;5.60;3.00;;;9.40;99.90;;;;;;4965795;28;20031;-70
2023/12/29 03:43:41;;;;;;;3.00;2.70;;;9.30;99.90;;;;;;4969288;28;20380;-70
2023/12/29 03:46:21;;;;;;;5.78;2.60;;;9.30;99.90;;;;;;4968898;28;20027;-70
2023/12/29 03:48:47;;;;;;;5.05;3.05;;;9.20;99.90;;;;;;4958186;28;20023;-70
2023/12/29 03:51:13;;;;;;;3.05;2.42;;;9.10;99.90;;;;;;4949096;28;20030;-70
2023/12/29 03:53:39;;;;;;;2.92;2.35;;;9.00;99.90;;;;;;4969697;28;20338;-70
2023/12/29 03:56:09;;;;;;;4.05;2.33;;;9.00;99.90;;;;;;4960429;28;20107;-69
2023/12/29 03:58:35;;;;;;;2.92;2.67;;;8.90;99.90;;;;;;4968027;28;20031;-70
2023/12/29 04:01:01;;;;;;;2.45;2.10;;;8.80;99.90;;;;;;4972595;28;20035;-70
2023/12/29 04:03:27;;;;;;;2.72;2.20;;;8.80;99.90;;;;;;4961161;28;20565;-70
2023/12/29 04:05:53;;;;;;;3.60;2.85;;;8.80;99.90;;;;;;4961584;28;20031;-70
2023/12/29 04:08:18;;;;;;;3.88;2.35;;;8.70;99.90;;;;;;4969673;28;20449;-70
2023/12/29 04:10:44;;;;;;;3.38;2.55;;;8.80;99.90;;;;;;4961985;28;20074;-70
2023/12/29 04:13:10;;;;;;;3.53;2.10;;;8.70;99.90;;;;;;4957900;28;20379;-71
2023/12/29 04:15:35;;;;;;;3.30;2.50;;;8.80;99.90;;;;;;4962158;28;20043;-69
2023/12/29 04:18:01;;;;;;;4.47;2.35;;;8.80;99.90;;;;;;4971732;28;20039;-70
2023/12/29 04:20:26;;;;;;;3.08;2.10;;;8.70;99.90;;;;;;4968850;28;20054;-70
2023/12/29 04:22:52;;;;;;;4.25;2.20;;;8.80;99.90;;;;;;4961767;28;20061;-71
2023/12/29 04:25:18;;;;;;;3.53;2.22;;;8.80;99.90;;;;;;4965164;28;20105;-70
2023/12/29 04:27:43;;;;;;;3.25;2.25;;;8.80;99.90;;;;;;4937330;28;20030;-70
2023/12/29 04:30:09;;;;;;;3.00;2.28;;;8.80;99.90;;;;;;4965365;28;20031;-70
2023/12/29 04:32:35;;;;;;;2.80;2.22;;;8.90;99.90;;;;;;4966930;28;20407;-70
2023/12/29 04:35:01;;;;;;;6.50;2.60;;;9.00;99.90;;;;;;4970824;28;20042;-70
2023/12/29 04:37:26;;;;;;;2.83;2.03;;;9.10;99.90;;;;;;4959754;28;20412;-70
2023/12/29 04:39:52;;;;;;;2.80;2.28;;;9.10;99.90;;;;;;4959875;28;20256;-71
2023/12/29 04:42:18;;;;;;;3.35;2.00;;;9.10;99.90;;;;;;4967735;28;20034;-70
2023/12/29 04:44:44;;;;;;;3.30;2.28;;;9.10;99.90;;;;;;4972581;28;20034;-70
2023/12/29 04:47:09;;;;;;;2.38;1.95;;;9.10;99.90;;;;;;4962104;28;20114;-70
2023/12/29 04:49:35;;;;;;;3.13;2.38;;;9.10;99.90;;;;;;4961234;28;20027;-69
2023/12/29 04:52:01;;;;;;;3.67;2.30;;;9.10;99.90;;;;;;4970345;28;20031;-70
2023/12/29 04:54:27;;;;;;;3.67;2.17;;;9.00;99.90;;;;;;4964519;28;20125;-70
2023/12/29 04:56:53;;;;;;;1.95;1.85;;;9.10;99.90;;;;;;4962632;28;20170;-73
2023/12/29 04:59:18;;;;;;;4.53;2.25;;;9.10;99.90;;;;;;4968440;28;20031;-72
2023/12/29 05:01:44;;;;;;;2.60;1.90;;;9.10;99.90;;;;;;4966408;28;20055;-73
2023/12/29 05:04:09;;;;;;;3.15;2.40;;;9.10;99.90;;;;;;4959251;28;20038;-72
2023/12/29 05:06:35;;;;;;;2.67;2.13;;;9.20;99.90;;;;;;4966565;28;20027;-71
2023/12/29 05:09:01;;;;;;;2.95;2.10;;;9.10;99.90;;;;;;4971020;28;20113;-71
2023/12/29 05:11:26;;;;;;;4.18;2.13;;;9.10;99.90;;;;;;4959817;28;20031;-70
2023/12/29 05:13:52;;;;;;;2.35;2.03;;;9.20;99.90;;;;;;4958904;28;20023;-71
2023/12/29 05:16:17;;;;;;;4.60;2.33;;;9.20;99.90;;;;;;4967500;28;20058;-70
2023/12/29 05:18:43;;;;;;;2.45;1.90;;;9.20;99.90;;;;;;4971640;28;20037;-71
2023/12/29 05:21:19;;;;;;;2.53;1.90;;;9.20;99.90;;;;;;4967416;28;20106;-70
2023/12/29 05:23:45;;;;;;;2.38;2.15;;;9.20;99.90;;;;;;4952872;28;20469;-70
2023/12/29 05:26:11;;;;;;;3.35;2.63;;;9.30;99.90;;;;;;4970328;28;20362;-73
2023/12/29 05:28:37;;;;;;;4.43;2.25;;;9.30;99.90;;;;;;4961243;28;20031;-72
2023/12/29 05:31:05;;;;;;;3.33;2.45;;;9.30;99.90;;;;;;4971728;28;20027;-72
2023/12/29 05:33:34;;;;;;;3.13;2.17;;;9.20;99.90;;;;;;4965066;28;20031;-71
2023/12/29 05:36:07;;;;;;;3.58;2.50;;;9.10;99.90;;;;;;4966520;28;20039;-73
2023/12/29 05:38:33;;;;;;;3.42;2.20;;;9.00;99.90;;;;;;4959041;28;20050;-71
2023/12/29 05:41:01;;;;;;;3.15;2.72;;;9.00;99.90;;;;;;4965949;28;20039;-72
2023/12/29 05:43:26;;;;;;;2.58;2.38;;;8.90;99.90;;;;;;4967068;28;20503;-73
2023/12/29 05:45:52;;;;;;;4.63;3.45;;;8.80;99.90;;;;;;4967369;28;20102;-73
2023/12/29 05:48:18;;;;;;;3.65;2.88;;;8.70;99.90;;;;;;4953191;28;20106;-73
2023/12/29 05:50:43;;;;;;;3.70;2.50;;;8.70;99.90;;;;;;4967168;28;20034;-73
2023/12/29 05:53:09;;;;;;;4.18;2.80;;;8.60;99.90;;;;;;4971598;28;20022;-73
2023/12/29 05:55:34;;;;;;;4.60;2.83;;;8.60;99.90;;;;;;4956870;28;20117;-69
2023/12/29 05:58:00;;;;;;;4.53;2.88;;;8.50;99.90;;;;;;4961820;28;20031;-70
2023/12/29 06:00:26;;;;;;;3.65;2.75;;;8.50;99.90;;;;;;4970797;28;20106;-70
2023/12/29 06:02:51;;;;;;;3.22;2.83;;;8.50;99.90;;;;;;4959331;28;20066;-70
2023/12/29 06:05:17;;;;;;;3.05;2.70;;;8.40;99.90;;;;;;4963576;28;20035;-70
2023/12/29 06:07:42;;;;;;;3.00;2.70;;;8.40;99.90;;;;;;4962475;28;20102;-69
2023/12/29 06:10:09;;;;;;;4.78;3.03;;;8.40;99.90;;;;;;4965069;28;20055;-70
2023/12/29 06:12:35;;;;;;;4.20;2.85;;;8.30;99.90;;;;;;4958772;28;20031;-69
2023/12/29 06:15:00;;;;;;;3.63;2.60;;;8.30;99.90;;;;;;4965699;28;20053;-70
2023/12/29 06:17:26;;;;;;;8.73;3.25;;;8.30;99.90;;;;;;4967536;28;20050;-69
2023/12/29 06:19:52;;;;;;;2.85;2.53;;;8.30;99.90;;;;;;4967152;28;20027;-70
2023/12/29 06:22:18;;;;;;;3.08;2.67;;;8.40;99.90;;;;;;4958560;28;20134;-70
2023/12/29 06:24:44;;;;;;;4.35;3.13;;;8.40;99.90;;;;;;4958922;28;20109;-70
2023/12/29 06:27:11;;;;;;;4.82;2.67;;;8.50;99.90;;;;;;4970090;28;20062;-70
2023/12/29 06:29:36;;;;;;;2.72;2.28;;;8.50;99.90;;;;;;4955739;28;20027;-70
2023/12/29 06:32:05;;;;;;;3.80;2.40;;;8.50;99.90;;;;;;4959580;28;20385;-70
2023/12/29 06:34:31;;;;;;;3.13;2.60;;;8.50;99.90;;;;;;4968993;28;20034;-69
2023/12/29 06:36:56;;;;;;;4.28;2.13;;;8.40;99.90;;;;;;4958811;28;20047;-70
2023/12/29 06:39:23;;;;;;;3.03;2.50;;;8.50;99.90;;;;;;4962321;28;20487;-70
2023/12/29 06:41:48;;;;;;;2.20;2.00;;;8.50;99.90;;;;;;4961538;28;20348;-70
2023/12/29 06:44:14;;;;;;;4.97;2.60;;;8.40;99.90;;;;;;4971925;28;20026;-70
2023/12/29 06:46:40;;;;;;;3.10;2.28;;;8.40;99.90;;;;;;4962588;28;20433;-69
2023/12/29 06:49:09;;;;;;;4.15;2.47;;;8.40;99.90;;;;;;4964944;28;20039;-69
2023/12/29 06:51:35;;;;;;;4.55;2.35;;;8.50;99.90;;;;;;4965571;28;20038;-69
2023/12/29 06:54:01;;;;;;;3.65;2.33;;;8.50;99.90;;;;;;4966783;28;20038;-69
2023/12/29 06:56:27;;;;;;;3.15;2.47;;;8.40;99.90;;;;;;4958637;28;20046;-68
2023/12/29 06:58:53;;;;;;;3.25;2.17;;;8.40;99.90;;;;;;4965381;28;20023;-69
2023/12/29 07:01:18;;;;;;;5.10;2.72;;;8.40;99.90;;;;;;4968708;28;20070;-69
2023/12/29 07:03:44;;;;;;;3.50;2.17;;;8.40;99.90;;;;;;4952506;28;20027;-69
2023/12/29 07:06:10;;;;;;;5.15;2.38;;;8.40;99.90;;;;;;4958308;28;20484;-69
2023/12/29 07:08:36;;;;;;;3.95;2.58;;;8.50;99.90;;;;;;4967936;28;20023;-69
2023/12/29 07:11:02;;;;;;;3.92;2.55;;;8.60;99.90;;;;;;4971363;28;20097;-69
2023/12/29 07:13:28;;;;;;;3.97;2.67;;;8.60;99.90;;;;;;4959986;28;20027;-69
2023/12/29 07:15:55;;;;;;;3.60;1.90;;;8.70;99.90;;;;;;4960652;28;20412;-69
2023/12/29 07:18:21;;;;;;;3.80;2.08;;;8.70;99.90;;;;;;4969510;28;20046;-68
2023/12/29 07:20:46;;;;;;;3.75;2.20;;;8.70;99.90;;;;;;4966051;28;20062;-70
2023/12/29 07:23:12;;;;;;;2.42;2.08;;;8.90;99.90;;;;;;4958443;28;20023;-70
2023/12/29 07:25:37;;;;;;;2.63;1.90;;;8.90;99.90;;;;;;4960194;28;20074;-70
2023/12/29 07:28:03;;;;;;;5.88;2.80;;;8.90;99.90;;;;;;4966687;28;20023;-70
2023/12/29 07:30:29;;;;;;;2.30;2.10;;;8.90;99.90;;;;;;4961162;28;20045;-69
2023/12/29 07:32:55;;;;;;;2.22;1.85;;;8.80;99.90;;;;;;4968254;28;20038;-70
2023/12/29 07:35:20;;;;;;;2.38;1.98;;;8.80;99.90;;;;;;4970045;28;20066;-68
2023/12/29 07:37:46;;;;;;;3.72;2.03;;;8.80;99.90;;;;;;4967981;28;20358;-69
2023/12/29 07:40:13;;;;;;;2.80;1.95;;;8.90;99.90;;;;;;4960206;28;20445;-69
2023/12/29 07:42:43;;;;;;;4.75;1.90;;;8.80;99.90;;;;;;4963967;28;20106;-70
2023/12/29 07:45:09;;;;;;;2.03;1.85;;;8.80;99.90;;;;;;4973679;28;20415;-70
2023/12/29 07:47:34;;;;;;;3.63;2.20;;;8.70;99.90;;;;;;4962763;28;20049;-68
2023/12/29 07:50:01;;;;;;;2.20;2.00;;;8.70;99.90;;;;;;4968949;28;20033;-69
2023/12/29 07:52:27;;;;;;;3.70;2.00;;;8.70;99.90;;;;;;4972794;28;20031;-69
2023/12/29 07:54:52;;;;;;;2.00;1.90;;;8.90;99.90;;;;;;4967780;28;20391;-69
2023/12/29 07:57:18;;;;;;;5.03;2.50;;;9.00;99.90;;;;;;4955111;28;20469;-69
2023/12/29 07:59:43;;;;;;;4.63;1.98;;;9.00;99.90;;;;;;4967827;28;20027;-69
2023/12/29 08:02:09;;;;;;;4.30;2.10;;;9.10;99.90;;;;;;4961338;28;20023;-72
2023/12/29 08:04:35;;;;;;;2.50;1.90;;;9.10;99.90;;;;;;4965041;28;20425;-70
2023/12/29 08:07:01;;;;;;;2.30;2.00;;;9.20;99.90;;;;;;4968697;28;20035;-69
2023/12/29 08:09:27;;;;;;;6.43;2.10;;;9.10;99.90;;;;;;4957285;28;20032;-69
2023/12/29 08:11:52;;;;;;;2.85;1.85;;;9.20;99.90;;;;;;4965456;28;20027;-69
2023/12/29 08:14:18;;;;;;;1.83;1.67;;;9.30;99.90;;;;;;4955268;28;20027;-69
2023/12/29 08:16:44;;;;;;;3.53;1.98;;;9.30;99.90;;;;;;4961446;28;20051;-70
2023/12/29 08:19:10;;;;;;;2.95;1.80;;;9.40;99.90;;;;;;4971049;28;20031;-69
2023/12/29 08:21:36;;;;;;;2.13;1.92;;;9.40;99.90;;;;;;4968076;28;20031;-69
2023/12/29 08:24:02;;;;;;;3.13;2.17;;;9.40;99.90;;;;;;4959061;28;20436;-69
2023/12/29 08:26:28;;;;;;;2.42;1.80;;;9.50;99.90;;;;;;4961094;28;20035;-68
2023/12/29 08:28:54;;;;;;;3.45;2.20;;;9.60;99.90;;;;;;4959631;28;20073;-68
2023/12/29 08:31:19;;;;;;;3.17;2.08;;;9.60;99.90;;;;;;4956946;28;20028;-68
2023/12/29 08:33:45;;;;;;;2.80;2.13;;;9.50;99.90;;;;;;4960978;28;20022;-70
2023/12/29 08:36:11;;;;;;;2.38;2.15;;;9.50;99.90;;;;;;4961209;28;20512;-70
2023/12/29 08:38:37;;;;;;;2.50;2.15;;;9.50;99.90;;;;;;4962308;28;20027;-68
2023/12/29 08:41:04;;;;;;;3.38;2.40;;;9.60;99.90;;;;;;4959815;28;20019;-69
2023/12/29 08:43:30;;;;;;;4.82;2.33;;;9.60;99.90;;;;;;4959215;28;20081;-68
2023/12/29 08:45:56;;;;;;;4.50;2.60;;;9.60;99.90;;;;;;4967905;28;20457;-68
2023/12/29 08:48:22;;;;;;;3.88;2.45;;;9.70;99.90;;;;;;4962382;28;20042;-68
2023/12/29 08:50:47;;;;;;;4.85;2.10;;;9.70;99.90;;;;;;4958040;28;20365;-69
2023/12/29 08:53:13;;;;;;;2.90;2.10;;;9.70;99.90;;;;;;4960071;28;20110;-68
2023/12/29 08:55:39;;;;;;;2.92;2.45;;;9.70;99.90;;;;;;4961575;28;20477;-69
2023/12/29 08:58:04;;;;;;;3.33;2.15;;;9.80;99.90;;;;;;4961345;28;20461;-68
2023/12/29 09:00:30;;;;;;;3.80;2.40;;;9.80;99.90;;;;;;4958411;28;20026;-68
2023/12/29 09:02:56;;;;;;;2.05;1.85;;;9.80;99.90;;;;;;4965090;28;20035;-69
2023/12/29 09:05:22;;;;;;;2.67;2.15;;;9.80;99.90;;;;;;4964387;28;20030;-68
2023/12/29 09:07:48;;;;;;;3.03;2.03;;;9.90;99.90;;;;;;4964445;28;20495;-68
2023/12/29 09:10:14;;;;;;;3.08;1.90;;;9.90;99.90;;;;;;4963545;28;20173;-68
2023/12/29 09:12:40;;;;;;;3.17;2.17;;;9.90;99.90;;;;;;4958172;28;20027;-73
2023/12/29 09:15:06;;;;;;;2.17;1.98;;;9.90;99.90;;;;;;4966488;28;20392;-71
2023/12/29 09:17:32;;;;;;;2.35;1.98;;;10.00;99.90;;;;;;4967721;28;21378;-73
2023/12/29 09:19:58;;;;;;;2.88;1.80;;;10.00;99.90;;;;;;4965544;28;20110;-73
2023/12/29 09:22:23;;;;;;;3.55;1.95;;;10.10;99.90;;;;;;4959565;28;20046;-70
2023/12/29 09:24:49;;;;;;;2.15;1.70;;;10.20;99.90;;;;;;4955812;28;20034;-71
2023/12/29 09:27:14;;;;;;;2.13;1.58;;;10.20;99.90;;;;;;4970992;28;20492;-70
2023/12/29 09:29:41;;;;;;;1.70;1.35;;;10.30;99.90;;;;;;4959121;28;20433;-70
2023/12/29 09:32:06;;;;;;;2.53;1.67;;;10.40;99.90;;;;;;4967495;28;20487;-73
2023/12/29 09:34:32;;;;;;;3.45;1.33;;;10.60;99.90;;;;;;4956989;28;20035;-70
2023/12/29 09:36:58;;;;;;;1.48;1.35;;;10.80;99.90;;;;;;4959046;28;20104;-73
2023/12/29 09:39:23;;;;;;;1.40;1.30;;;10.90;99.90;;;;;;4955194;28;20031;-70
2023/12/29 09:41:52;;;;;;;2.92;1.60;;;10.90;99.90;;;;;;4959308;28;20544;-70
2023/12/29 09:44:20;;;;;;;6.05;1.23;;;10.80;99.90;;;;;;4968829;28;20034;-71
2023/12/29 09:46:50;;;;;;;1.00;1.00;;;10.80;99.90;;;;;;4956467;28;20085;-73
2023/12/29 09:49:17;;;;;;;2.80;1.25;;;10.80;99.90;;;;;;4969143;28;20034;-71
2023/12/29 09:51:43;;;;;;;1.83;1.30;;;10.70;99.90;;;;;;4967188;28;20038;-71
2023/12/29 09:54:10;;;;;;;2.33;1.35;;;10.70;99.90;;;;;;4953610;28;20038;-71
2023/12/29 09:56:37;;;;;;;3.13;1.30;;;10.60;99.90;;;;;;4963258;28;20034;-71
2023/12/29 09:59:03;;;;;;;1.85;1.55;;;10.60;99.90;;;;;;4962378;28;20109;-71
2023/12/29 10:01:30;;;;;;;2.08;1.00;;;10.60;99.90;;;;;;4961674;28;20125;-70
2023/12/29 10:03:56;;;;;;;2.15;1.35;;;10.70;99.90;;;;;;4962312;28;20031;-69
2023/12/29 10:06:25;;;;;;;2.95;1.30;;;10.80;99.90;;;;;;4967166;28;20510;-70
2023/12/29 10:08:51;;;;;;;1.85;1.50;;;10.80;99.90;;;;;;4961183;28;20035;-70
2023/12/29 10:11:22;;;;;;;1.27;1.17;;;10.80;99.90;;;;;;4966473;28;20502;-70
2023/12/29 10:13:51;;;;;;;1.55;1.45;;;10.90;99.90;;;;;;4964967;28;20030;-70
2023/12/29 10:16:35;;;;;;;1.42;1.20;;;10.90;99.90;;;;;;4969887;28;20444;-71
2023/12/29 10:19:30;;;;;;;1.67;1.27;;;10.90;99.90;;;;;;4967192;28;20039;-71
2023/12/29 10:22:04;;;;;;;1.67;1.58;;;11.10;99.90;;;;;;4961935;28;20709;-70
2023/12/29 10:24:31;;;;;;;3.28;1.77;;;11.20;99.90;;;;;;4962470;28;20389;-70
2023/12/29 10:26:57;;;;;;;2.15;1.20;;;11.30;99.90;;;;;;4961540;28;20037;-70
2023/12/29 10:29:23;;;;;;;1.15;1.05;;;11.30;99.90;;;;;;4960071;28;20023;-72
2023/12/29 10:31:49;;;;;;;0.93;0.90;;;11.20;99.90;;;;;;4965943;28;20023;-70
2023/12/29 10:34:29;;;;;;;2.03;1.30;;;11.20;99.90;;;;;;4967037;28;20503;-70
2023/12/29 10:36:59;;;;;;;1.05;0.93;;;11.20;99.90;;;;;;4957246;28;20610;-70
2023/12/29 10:39:25;;;;;;;1.98;1.23;;;11.20;99.90;;;;;;4966662;28;20062;-71
2023/12/29 10:42:06;;;;;;;0.90;0.90;;;11.30;99.90;;;;;;4967635;28;20301;-70
2023/12/29 10:44:36;;;;;;;1.90;1.02;;;11.40;99.90;;;;;;4965541;28;20093;-70
2023/12/29 10:47:12;;;;;;;2.33;1.10;;;11.40;99.90;;;;;;4971479;28;20353;-71
2023/12/29 10:49:38;;;;;;;1.17;1.08;;;11.50;99.90;;;;;;4967932;28;20031;-70
2023/12/29 10:52:16;;;;;;;1.02;0.90;;;11.60;99.90;;;;;;4968397;28;20105;-71
2023/12/29 10:54:42;;;;;;;0.63;0.63;;;11.60;99.90;;;;;;4957086;28;20078;-70
2023/12/29 10:57:12;;;;;;;0.80;0.80;;;11.70;99.90;;;;;;4967024;28;20069;-70
2023/12/29 10:59:38;;;;;;;;;;;11.70;99.90;;;;;;4972745;28;20034;-70
2023/12/29 11:02:04;;;;;;;1.63;1.00;;;11.80;99.90;;;;;;4961918;28;19969;-71
2023/12/29 11:04:30;;;;;;;0.88;0.88;;;11.80;99.90;;;;;;4964153;28;20106;-70
2023/12/29 11:06:55;;;;;;;0.90;0.77;;;11.80;99.90;;;;;;4971942;28;20816;-71
2023/12/29 11:09:29;;;;;;;1.35;1.17;;;11.90;99.90;;;;;;4963139;28;20045;-73
2023/12/29 11:12:00;;;;;;;1.48;1.23;;;11.90;99.90;;;;;;4963541;28;20019;-74
2023/12/29 11:14:28;;;;;;;0.85;0.80;;;11.90;99.90;;;;;;4970729;28;20031;-71
2023/12/29 11:16:54;;;;;;;1.10;1.00;;;12.00;99.90;;;;;;4971447;28;20062;-70
2023/12/29 11:19:21;;;;;;;1.10;0.95;;;12.00;99.90;;;;;;4968636;28;20023;-72
2023/12/29 11:21:49;;;;;;;1.25;0.98;;;;;;;;;;4970019;28;20034;-73
2023/12/29 11:24:15;;;;;;;2.13;0.80;;;;;;;;;;4959750;28;20023;-73
2023/12/29 11:26:42;;;;;;;1.33;1.20;;;;;;;;;;4965715;28;20118;-72
2023/12/29 11:29:08;;;;;;;1.25;1.10;;;;;;;;;;4963658;28;20027;-72
2023/12/29 11:31:35;;;;;;;0.80;0.80;;;;;;;;;;4969015;28;20045;-73
2023/12/29 11:34:27;;;;;;;1.17;0.75;;;;;;;;;;4970300;28;20034;-73
2023/12/29 11:37:11;;;;;;;1.55;1.20;;;;;;;;;;4962047;28;20074;-73
2023/12/29 11:39:41;;;;;;;2.35;0.80;;;;;;;;;;4968934;28;20053;-73
2023/12/29 11:42:22;;;;;;;4.28;1.10;;;;;;;;;;4941160;28;20379;-72
2023/12/29 11:44:50;;;;;;;1.20;1.10;;;;;;;;;;4965008;28;20059;-71
2023/12/29 11:47:37;;;;;;;1.52;1.08;;;;;;;;;;4971808;28;20534;-71
2023/12/29 11:50:03;;;;;;;1.30;1.05;;;;;;;;;;4970361;28;20062;-71
2023/12/29 11:52:47;;;;;;;0.93;0.85;;;;;;;;;;4968756;28;20506;-71
2023/12/29 11:55:14;;;;;;;2.10;1.00;;;;;;;;;;4959553;28;20054;-70
2023/12/29 11:57:41;;;;;;;8.80;2.72;;;;;;;;;;4969349;28;20086;-72
2023/12/29 12:00:07;;;;;;;4.05;1.17;;;;;;;;;;4969486;28;20074;-73
2023/12/29 12:02:33;;;;;;;1.10;1.00;;;;;;;;;;4959082;28;20032;-72
2023/12/29 12:04:59;;;;;;;1.20;1.10;;;;;;;;;;4967296;28;20023;-74
2023/12/29 12:07:25;;;;;;;1.23;0.90;;;;;;;;;;4972806;28;20057;-76
2023/12/29 12:09:54;;;;;;;1.00;0.90;;;;;;;;;;4962044;28;20500;-76
2023/12/29 12:12:43;;;;;;;6.40;1.90;;;12.60;99.90;;;;;;4972118;28;20087;-71
2023/12/29 12:15:27;;;;;;;2.03;1.10;;;12.60;99.90;;;;;;4960957;28;20465;-71
2023/12/29 12:17:52;;;;;;;3.25;1.00;;;12.60;99.90;;;;;;4973067;28;20106;-69
2023/12/29 12:20:18;;;;;;;1.20;1.10;;;12.70;99.90;;;;;;4969338;28;20023;-70
2023/12/29 12:22:45;;;;;;;2.97;1.15;;;12.70;99.90;;;;;;4964721;28;20034;-69
2023/12/29 12:25:11;;;;;;;1.95;1.02;;;12.60;99.90;;;;;;4963536;28;20050;-70
2023/12/29 12:27:39;;;;;;;1.10;1.00;;;12.60;99.90;;;;;;4969387;28;20568;-74
2023/12/29 12:30:06;;;;;;;1.58;1.10;;;12.60;99.90;;;;;;4962928;28;20105;-70
2023/12/29 12:32:32;;;;;;;1.98;1.00;;;12.60;99.90;;;;;;4972172;28;20085;-73
2023/12/29 12:34:58;;;;;;;1.50;1.15;;;12.70;99.90;;;;;;4963576;28;20115;-72
2023/12/29 12:37:25;;;;;;;1.10;1.00;;;12.70;99.90;;;;;;4961993;28;20487;-73
2023/12/29 12:39:52;;;;;;;1.05;0.82;;;12.70;99.90;;;;;;4966045;28;20034;-71
2023/12/29 12:42:19;;;;;;;1.35;1.00;;;12.70;99.90;;;;;;4969992;28;20095;-71
2023/12/29 12:44:50;;;;;;;1.02;0.90;;;12.70;99.90;;;;;;4967129;28;20027;-71
2023/12/29 12:47:23;;;;;;;2.05;1.00;;;12.70;99.90;;;;;;4965837;28;20019;-71
2023/12/29 12:49:48;;;;;;;2.25;1.10;;;12.80;99.90;;;;;;4969906;28;20030;-71
2023/12/29 12:52:14;;;;;;;1.00;1.00;;;12.80;99.90;;;;;;4970232;28;20109;-71
2023/12/29 12:54:40;;;;;;;1.00;0.90;;;12.90;99.90;;;;;;4965425;28;20405;-71
2023/12/29 12:57:06;;;;;;;1.17;1.00;;;13.00;99.90;;;;;;4968253;28;20035;-71
2023/12/29 12:59:33;;;;;;;2.90;1.20;;;;;;;;;;4971735;28;20393;-71